Marion, IA (52302)

7:08 PM CDT on July 28, 2016 (GMT -0500)
Edgebrook Estates | | Change Station

Elev 830 ft 42.06 °N, 91.59 °W | Updated 8 minutes ago

Clear
Clear
75.9 °F
Feels Like 77 °F
N
2.0
Wind Variable Wind from NNE
Gusts 9.0 mph

Today
High -- | Low -- °F
--% Chance of Precip.
Yesterday
High -- | Low -- °F
Precip. -- in
Pressure 29.90 in
Visibility 10.0 miles
Clouds Clear
Heat Index 77 °F
Dew Point 68 °F
Humidity 77%
Rainfall 0.00 in
Snow Depth Not available.
5:56 AM 8:28 PM
Waning Crescent, 27% visible
METAR KCID 282352Z 33009KT 10SM CLR 24/20 A2991 RMK AO2 SLP124 T02440200 10272 20244 50000
Pressure 29.90 in
Visibility 10.0 miles
Clouds Clear
Heat Index 77 °F
Dew Point 68 °F
Humidity 77%
Rainfall 0.00 in
Snow Depth Not available.
5:56 AM 8:28 PM
Waning Crescent, 27% visible
METAR KCID 282352Z 33009KT 10SM CLR 24/20 A2991 RMK AO2 SLP124 T02440200 10272 20244 50000

10-Day Weather Forecast

Almanac

Astronomy

Jul. 28, 2016 Rise Set
Actual Time
Civil Twilight
Nautical Twilight
Astronomical Twilight
Moon
Length of Visible Light
Length of Day
Tomorrow will be .
, % of the Moon is Illuminated

Today's Extremes

State Highs State Lows

Community

WunderPhotos

Upload Photos

1,928,239 photos uploaded!

WunderBlog® & News

Nearby

Air Quality

  Air Quality AQ Index Pollutant
Not available.

Snow Depth

Station Depth Elevation

Earthquake Activity

City Distance Mag. Time & Date
Minimum magnitude displayed is 2.5.

Coastal Water Temperatures

Place Temperature

Stations

Nearby Weather Stations

Station Location Temp. Windchill Dew Point Humidity Wind Precip. Elev Updated Type
                   

Watches & Warnings

There are currently no watches in effect.